createdAt,value
2023-02-26T00:00:49.188Z,26.00
2023-02-26T00:03:22.295Z,26.00
2023-02-26T00:06:00.040Z,25.90
2023-02-26T00:08:33.292Z,26.00
2023-02-26T00:11:07.604Z,25.90
2023-02-26T00:13:42.014Z,25.90
2023-02-26T00:16:22.376Z,25.90
2023-02-26T00:18:55.776Z,25.90
2023-02-26T00:21:31.686Z,25.90
2023-02-26T00:24:06.693Z,25.90
2023-02-26T00:26:39.777Z,25.90
2023-02-26T00:29:13.129Z,25.90
2023-02-26T00:31:46.719Z,25.90
2023-02-26T00:34:20.677Z,25.90
2023-02-26T00:37:04.165Z,25.90
2023-02-26T00:39:41.722Z,25.90
2023-02-26T00:42:15.550Z,25.90
2023-02-26T00:44:49.026Z,25.80
2023-02-26T00:47:25.755Z,25.80
2023-02-26T00:50:05.823Z,25.80
2023-02-26T00:52:44.417Z,25.80
2023-02-26T00:55:17.788Z,25.80
2023-02-26T00:57:50.978Z,25.80
2023-02-26T01:00:24.264Z,25.80
2023-02-26T01:02:57.545Z,25.80
2023-02-26T01:05:31.003Z,25.80
2023-02-26T01:08:08.152Z,25.80
2023-02-26T01:10:42.365Z,25.80
2023-02-26T01:13:15.705Z,25.80
2023-02-26T01:15:49.893Z,25.80
2023-02-26T01:18:25.246Z,25.80
2023-02-26T01:21:00.090Z,25.80
2023-02-26T01:23:36.827Z,25.80
2023-02-26T01:26:13.612Z,25.80
2023-02-26T01:28:47.126Z,25.80
2023-02-26T01:31:27.416Z,25.80
2023-02-26T01:34:03.997Z,25.80
2023-02-26T01:36:42.432Z,25.80
2023-02-26T01:39:19.504Z,25.80
2023-02-26T01:41:55.389Z,25.80
2023-02-26T01:44:31.562Z,25.80
2023-02-26T01:47:17.186Z,25.80
2023-02-26T01:49:50.586Z,25.80
2023-02-26T01:52:57.643Z,25.80
2023-02-26T01:55:32.171Z,25.80
2023-02-26T01:58:05.928Z,25.80
2023-02-26T02:00:39.449Z,25.80
2023-02-26T02:03:12.700Z,25.80
2023-02-26T02:05:48.360Z,25.80
2023-02-26T02:08:22.173Z,25.80
2023-02-26T02:10:56.721Z,25.80
2023-02-26T02:13:36.440Z,25.80
2023-02-26T02:16:18.082Z,25.80
2023-02-26T02:18:54.660Z,25.80
2023-02-26T02:21:39.379Z,25.80
2023-02-26T02:24:16.661Z,25.80
2023-02-26T02:27:04.017Z,25.80
2023-02-26T02:30:03.359Z,25.80
2023-02-26T02:32:40.589Z,25.80
2023-02-26T02:35:17.026Z,25.80
2023-02-26T02:37:55.573Z,25.80
2023-02-26T02:40:30.798Z,25.80
2023-02-26T02:43:05.802Z,25.80
2023-02-26T02:45:42.385Z,25.80
2023-02-26T02:48:18.909Z,25.80
2023-02-26T02:50:56.755Z,25.80
2023-02-26T02:53:31.572Z,25.80
2023-02-26T02:56:07.084Z,25.80
2023-02-26T02:58:42.994Z,25.80
2023-02-26T03:01:17.611Z,25.70
2023-02-26T03:03:55.048Z,25.70
2023-02-26T03:06:29.257Z,25.80
2023-02-26T03:09:04.272Z,25.70
2023-02-26T03:11:38.048Z,25.70
2023-02-26T03:14:12.247Z,25.70
2023-02-26T03:16:55.822Z,25.70
2023-02-26T03:19:32.634Z,25.70
2023-02-26T03:22:09.982Z,25.70
2023-02-26T03:25:02.125Z,25.70
2023-02-26T03:27:37.843Z,25.70
2023-02-26T03:30:16.028Z,25.70
2023-02-26T03:32:57.991Z,25.70
2023-02-26T03:35:37.069Z,25.70
2023-02-26T03:38:12.734Z,25.70
2023-02-26T03:40:48.675Z,25.70
2023-02-26T03:43:24.383Z,25.70
2023-02-26T03:45:59.545Z,25.70
2023-02-26T03:48:33.216Z,25.70
2023-02-26T03:51:10.700Z,25.70
2023-02-26T03:53:48.089Z,25.70
2023-02-26T03:56:27.392Z,25.70
2023-02-26T03:59:13.087Z,25.70
2023-02-26T04:01:54.505Z,25.70
2023-02-26T04:04:31.512Z,25.70
2023-02-26T04:07:06.184Z,25.70
2023-02-26T04:09:41.527Z,25.70
2023-02-26T04:12:14.921Z,25.70
2023-02-26T04:14:53.094Z,25.70
2023-02-26T04:17:26.339Z,25.70
2023-02-26T04:19:59.432Z,25.70
2023-02-26T04:22:33.940Z,25.70
2023-02-26T04:25:08.032Z,25.70
2023-02-26T04:27:42.748Z,25.70
2023-02-26T04:30:15.966Z,25.70
2023-02-26T04:32:49.108Z,25.70
2023-02-26T04:35:22.218Z,25.70
2023-02-26T04:37:56.690Z,25.70
2023-02-26T04:40:29.960Z,25.70
2023-02-26T04:43:03.141Z,25.70
2023-02-26T04:45:40.966Z,25.70
2023-02-26T04:48:14.432Z,25.70
2023-02-26T04:50:48.561Z,25.70
2023-02-26T04:53:23.144Z,25.70
2023-02-26T04:55:56.234Z,25.70
2023-02-26T04:58:29.329Z,25.70
2023-02-26T05:01:06.719Z,25.70
2023-02-26T05:03:39.924Z,25.70
2023-02-26T05:06:13.161Z,25.70
2023-02-26T05:08:47.640Z,25.70
2023-02-26T05:11:20.734Z,25.70
2023-02-26T05:13:53.901Z,25.70
2023-02-26T05:16:27.386Z,25.70
2023-02-26T05:19:00.746Z,25.70
2023-02-26T05:21:34.410Z,25.70
2023-02-26T05:24:09.289Z,25.70
2023-02-26T05:26:42.422Z,25.60
2023-02-26T05:29:15.578Z,25.70
2023-02-26T05:31:50.602Z,25.70
2023-02-26T05:34:23.709Z,25.70
2023-02-26T05:36:56.835Z,25.60
2023-02-26T05:39:31.285Z,25.70
2023-02-26T05:42:04.415Z,25.70
2023-02-26T05:44:37.475Z,25.60
2023-02-26T05:47:10.575Z,25.60
2023-02-26T05:49:43.710Z,25.60
2023-02-26T05:52:16.940Z,25.60
2023-02-26T05:54:51.402Z,25.60
2023-02-26T05:57:24.779Z,25.70
2023-02-26T05:59:57.842Z,25.70
2023-02-26T06:02:30.930Z,25.60
2023-02-26T06:05:04.379Z,25.60
2023-02-26T06:07:37.646Z,25.60
2023-02-26T06:10:13.445Z,25.70
2023-02-26T06:12:46.707Z,25.60
2023-02-26T06:15:19.943Z,25.60
2023-02-26T06:17:53.045Z,25.70
2023-02-26T06:20:26.136Z,25.60
2023-02-26T06:22:59.230Z,25.60
2023-02-26T06:25:33.684Z,25.60
2023-02-26T06:28:06.788Z,25.70
2023-02-26T06:30:39.908Z,25.70
2023-02-26T06:33:13.023Z,25.60
2023-02-26T06:35:46.278Z,25.60
2023-02-26T06:38:19.758Z,25.60
2023-02-26T06:40:54.211Z,25.60
2023-02-26T06:43:27.290Z,25.60
2023-02-26T06:46:00.622Z,25.60
2023-02-26T06:48:33.789Z,25.70
2023-02-26T06:51:07.641Z,25.60
2023-02-26T06:53:40.803Z,25.60
2023-02-26T06:56:15.286Z,25.60
2023-02-26T06:58:48.382Z,25.60
2023-02-26T07:01:21.518Z,25.70
2023-02-26T07:03:54.634Z,25.60
2023-02-26T07:06:28.387Z,25.60
2023-02-26T07:09:01.752Z,25.60
2023-02-26T07:11:36.309Z,25.60
2023-02-26T07:14:09.405Z,25.60
2023-02-26T07:16:42.520Z,25.60
2023-02-26T07:19:15.612Z,25.60
2023-02-26T07:21:48.970Z,25.60
2023-02-26T07:24:22.076Z,25.60
2023-02-26T07:26:56.628Z,25.60
2023-02-26T07:29:29.751Z,25.60
2023-02-26T07:32:02.970Z,25.60
2023-02-26T07:34:36.246Z,25.60
2023-02-26T07:37:09.448Z,25.60
2023-02-26T07:39:42.564Z,25.60
2023-02-26T07:42:17.261Z,25.60
2023-02-26T07:44:50.371Z,25.60
2023-02-26T07:47:23.454Z,25.60
2023-02-26T07:49:56.742Z,25.60
2023-02-26T07:52:29.926Z,25.60
2023-02-26T07:55:03.003Z,25.60
2023-02-26T07:57:37.605Z,25.60
2023-02-26T08:00:11.369Z,25.60
2023-02-26T08:02:47.783Z,25.60
2023-02-26T08:05:20.912Z,25.60
2023-02-26T08:07:54.115Z,25.60
2023-02-26T08:10:27.324Z,25.60
2023-02-26T08:13:01.802Z,25.60
2023-02-26T08:15:34.973Z,25.60
2023-02-26T08:18:08.111Z,25.60
2023-02-26T08:20:41.240Z,25.60
2023-02-26T08:23:14.360Z,25.60
2023-02-26T08:25:47.497Z,25.60
2023-02-26T08:28:22.044Z,25.60
2023-02-26T08:30:55.662Z,25.60
2023-02-26T08:33:29.220Z,25.60
2023-02-26T08:36:02.286Z,25.60
2023-02-26T08:38:35.465Z,25.60
2023-02-26T08:41:08.564Z,25.60
2023-02-26T08:43:43.031Z,25.60
2023-02-26T08:46:16.177Z,25.60
2023-02-26T08:48:49.287Z,25.60
2023-02-26T08:51:22.918Z,25.70
2023-02-26T08:53:56.833Z,25.60
2023-02-26T08:56:30.036Z,25.60
2023-02-26T08:59:04.547Z,25.60
2023-02-26T09:01:37.641Z,25.70
2023-02-26T09:04:10.734Z,25.70
2023-02-26T09:06:43.849Z,25.70
2023-02-26T09:09:17.008Z,25.70
2023-02-26T09:11:50.236Z,25.70
2023-02-26T09:14:24.823Z,25.70
2023-02-26T09:16:57.934Z,25.70
2023-02-26T09:19:31.078Z,25.80
2023-02-26T09:22:06.085Z,25.80
2023-02-26T09:24:39.413Z,25.80
2023-02-26T09:27:12.569Z,25.80
2023-02-26T09:29:47.050Z,25.80
2023-02-26T09:32:20.216Z,25.80
2023-02-26T09:34:53.816Z,25.80
2023-02-26T09:37:26.864Z,25.80
2023-02-26T09:39:59.957Z,25.80
2023-02-26T09:42:41.677Z,25.80
2023-02-26T09:45:22.553Z,25.80
2023-02-26T09:47:57.730Z,25.80
2023-02-26T09:50:35.722Z,25.80
2023-02-26T09:53:13.774Z,25.80
2023-02-26T09:55:47.910Z,25.70
2023-02-26T09:58:23.743Z,25.50
2023-02-26T10:01:01.759Z,25.40
2023-02-26T10:03:41.695Z,25.30
2023-02-26T10:06:24.798Z,25.20
2023-02-26T10:09:02.686Z,25.20
2023-02-26T10:11:39.887Z,25.20
2023-02-26T10:14:16.194Z,25.20
2023-02-26T10:16:53.056Z,25.20
2023-02-26T10:19:28.512Z,25.20
2023-02-26T10:22:04.414Z,25.20
2023-02-26T10:24:40.010Z,25.20
2023-02-26T10:27:16.170Z,25.30
2023-02-26T10:29:51.423Z,25.30
2023-02-26T10:32:27.509Z,25.30
2023-02-26T10:35:01.828Z,25.30
2023-02-26T10:37:39.988Z,25.40
2023-02-26T10:40:16.059Z,25.40
2023-02-26T10:42:51.979Z,25.40
2023-02-26T10:45:29.806Z,25.40
2023-02-26T10:48:12.060Z,25.40
2023-02-26T10:50:49.199Z,25.40
2023-02-26T10:53:23.083Z,25.40
2023-02-26T10:55:58.277Z,25.40
2023-02-26T10:58:31.320Z,25.40
2023-02-26T11:01:08.353Z,25.50
2023-02-26T11:03:44.133Z,25.50
2023-02-26T11:06:20.285Z,25.50
2023-02-26T11:08:54.337Z,25.60
2023-02-26T11:11:37.616Z,25.50
2023-02-26T11:14:11.462Z,25.60
2023-02-26T11:16:47.730Z,25.60
2023-02-26T11:19:30.133Z,25.60
2023-02-26T11:22:04.242Z,25.60
2023-02-26T11:24:40.270Z,25.60
2023-02-26T11:27:15.125Z,25.60
2023-02-26T11:29:49.598Z,25.60
2023-02-26T11:32:23.768Z,25.60
2023-02-26T11:34:58.502Z,25.60
2023-02-26T11:37:32.875Z,25.60
2023-02-26T11:40:10.884Z,25.60
2023-02-26T11:42:46.270Z,25.60
2023-02-26T11:45:20.290Z,25.60
2023-02-26T11:48:02.214Z,25.60
2023-02-26T11:50:43.214Z,25.60
2023-02-26T11:53:18.462Z,25.60
2023-02-26T11:55:53.276Z,25.60
2023-02-26T11:58:26.508Z,25.60
2023-02-26T12:01:00.528Z,25.70
2023-02-26T12:03:34.565Z,25.70
2023-02-26T12:06:16.275Z,25.60
2023-02-26T12:08:49.604Z,25.70
2023-02-26T12:11:35.299Z,25.70
2023-02-26T12:14:24.358Z,25.60
2023-02-26T12:17:03.994Z,25.70
2023-02-26T12:19:41.661Z,25.60
2023-02-26T12:22:23.348Z,25.60
2023-02-26T12:25:15.211Z,25.70
2023-02-26T12:27:56.611Z,25.70
2023-02-26T12:30:38.784Z,25.70
2023-02-26T12:33:19.189Z,25.70
2023-02-26T12:35:57.681Z,25.70
2023-02-26T12:38:36.375Z,25.70
2023-02-26T12:41:24.703Z,25.80
2023-02-26T12:44:02.619Z,25.80
2023-02-26T12:46:42.354Z,25.80
2023-02-26T12:49:23.606Z,25.80
2023-02-26T12:52:17.436Z,25.80
2023-02-26T12:55:02.289Z,25.80
2023-02-26T12:57:53.355Z,25.80
2023-02-26T13:00:44.068Z,25.80
2023-02-26T13:03:50.180Z,25.80
2023-02-26T13:06:31.953Z,25.80
2023-02-26T13:09:08.802Z,25.90
2023-02-26T13:11:48.448Z,25.90
2023-02-26T13:14:31.445Z,25.90
2023-02-26T13:17:08.472Z,25.90
2023-02-26T13:19:44.728Z,25.90
2023-02-26T13:22:21.490Z,26.00
2023-02-26T13:24:56.203Z,26.00
2023-02-26T13:27:33.225Z,26.00
2023-02-26T13:30:15.714Z,26.00
2023-02-26T13:32:49.964Z,26.00
2023-02-26T13:35:26.683Z,26.00
2023-02-26T13:38:01.150Z,26.00
2023-02-26T13:40:42.205Z,26.00
2023-02-26T13:43:23.596Z,26.10
2023-02-26T13:46:00.919Z,26.10
2023-02-26T13:48:41.214Z,26.10
2023-02-26T13:51:15.681Z,26.10
2023-02-26T13:53:56.539Z,26.10
2023-02-26T13:56:49.493Z,26.10
2023-02-26T13:59:30.944Z,26.10
2023-02-26T14:02:24.159Z,26.10
2023-02-26T14:04:58.972Z,26.10
2023-02-26T14:07:48.785Z,26.10
2023-02-26T14:10:26.289Z,26.10
2023-02-26T14:13:04.020Z,26.10
2023-02-26T14:15:50.968Z,26.10
2023-02-26T14:18:31.429Z,26.10
2023-02-26T14:21:19.365Z,26.10
2023-02-26T14:23:53.867Z,26.10
2023-02-26T14:26:28.951Z,26.10
2023-02-26T14:29:09.788Z,26.10
2023-02-26T14:31:56.207Z,26.10
2023-02-26T14:34:31.075Z,26.10
2023-02-26T14:37:07.147Z,26.10
2023-02-26T14:39:42.157Z,26.10
2023-02-26T14:42:18.185Z,26.10
2023-02-26T14:44:53.513Z,26.10
2023-02-26T14:47:28.038Z,26.10
2023-02-26T14:50:01.315Z,26.10
2023-02-26T14:52:44.316Z,26.10
2023-02-26T14:55:36.716Z,26.10
2023-02-26T14:58:16.475Z,26.10
2023-02-26T15:00:53.680Z,26.10
2023-02-26T15:03:47.325Z,26.10
2023-02-26T15:06:33.702Z,26.10
2023-02-26T15:09:12.133Z,26.10
2023-02-26T15:11:54.595Z,26.10
2023-02-26T15:14:36.670Z,26.10
2023-02-26T15:17:17.191Z,26.10
2023-02-26T15:20:02.262Z,26.10
2023-02-26T15:22:48.244Z,26.10
2023-02-26T15:25:25.844Z,26.00
2023-02-26T15:27:59.285Z,26.10
2023-02-26T15:30:33.242Z,26.00
2023-02-26T15:33:08.790Z,26.10
2023-02-26T15:35:44.279Z,26.00
2023-02-26T15:38:17.439Z,26.10
2023-02-26T15:40:51.851Z,26.00
2023-02-26T15:43:26.537Z,26.00
2023-02-26T15:46:02.425Z,26.10
2023-02-26T15:48:38.561Z,26.00
2023-02-26T15:51:14.695Z,26.00
2023-02-26T15:53:49.245Z,26.00
2023-02-26T15:56:24.398Z,26.00
2023-02-26T15:58:59.586Z,26.00
2023-02-26T16:01:36.787Z,26.00
2023-02-26T16:04:13.811Z,26.00
2023-02-26T16:06:49.268Z,26.00
2023-02-26T16:09:26.795Z,26.00
2023-02-26T16:12:01.928Z,26.00
2023-02-26T16:14:37.758Z,26.10
2023-02-26T16:17:13.037Z,26.00
2023-02-26T16:19:48.477Z,26.00
2023-02-26T16:22:25.390Z,26.00
2023-02-26T16:25:00.214Z,26.00
2023-02-26T16:27:34.376Z,26.00
2023-02-26T16:30:10.143Z,26.10
2023-02-26T16:32:45.213Z,26.10
2023-02-26T16:35:21.531Z,26.10
2023-02-26T16:37:56.116Z,26.10
2023-02-26T16:40:34.097Z,26.10
2023-02-26T16:43:07.984Z,26.10
2023-02-26T16:45:51.221Z,26.10
2023-02-26T16:48:26.842Z,26.10
2023-02-26T16:51:01.621Z,26.10
2023-02-26T16:53:37.480Z,26.10
2023-02-26T16:56:16.721Z,26.10
2023-02-26T16:58:51.146Z,26.10
2023-02-26T17:01:24.923Z,26.10
2023-02-26T17:04:01.201Z,26.10
2023-02-26T17:06:39.053Z,26.10
2023-02-26T17:09:26.310Z,26.10
2023-02-26T17:12:05.809Z,26.20
2023-02-26T17:14:41.018Z,26.10
2023-02-26T17:17:14.142Z,26.20
2023-02-26T17:19:47.259Z,26.20
2023-02-26T17:22:28.327Z,26.20
2023-02-26T17:25:02.806Z,26.20
2023-02-26T17:27:37.439Z,26.20
2023-02-26T17:30:13.852Z,26.20
2023-02-26T17:32:47.234Z,26.20
2023-02-26T17:35:20.556Z,26.20
2023-02-26T17:37:54.097Z,26.10
2023-02-26T17:40:29.653Z,26.20
2023-02-26T17:43:03.829Z,26.20
2023-02-26T17:45:37.624Z,26.20
2023-02-26T17:48:12.466Z,26.10
2023-02-26T17:50:47.170Z,26.20
2023-02-26T17:53:21.223Z,26.20
2023-02-26T17:55:56.632Z,26.20
2023-02-26T17:58:30.677Z,26.20
2023-02-26T18:01:04.565Z,26.20
2023-02-26T18:03:39.839Z,26.20
2023-02-26T18:06:14.993Z,26.20
2023-02-26T18:08:48.668Z,26.20
2023-02-26T18:11:25.980Z,26.10
2023-02-26T18:13:59.629Z,26.10
2023-02-26T18:16:35.950Z,26.10
2023-02-26T18:19:09.467Z,26.10
2023-02-26T18:21:42.539Z,26.10
2023-02-26T18:24:15.944Z,26.10
2023-02-26T18:26:51.431Z,26.10
2023-02-26T18:29:24.501Z,26.10
2023-02-26T18:32:00.417Z,26.10
2023-02-26T18:34:33.784Z,26.00
2023-02-26T18:37:06.935Z,26.00
2023-02-26T18:39:40.055Z,26.00
2023-02-26T18:42:19.684Z,26.00
2023-02-26T18:44:53.157Z,26.00
2023-02-26T18:47:26.261Z,26.00
2023-02-26T18:49:59.363Z,26.00
2023-02-26T18:52:32.481Z,26.00
2023-02-26T18:55:06.207Z,26.00
2023-02-26T18:57:42.402Z,26.00
2023-02-26T19:00:15.779Z,26.00
2023-02-26T19:02:48.877Z,26.00
2023-02-26T19:05:23.471Z,26.00
2023-02-26T19:07:56.618Z,26.00
2023-02-26T19:10:31.483Z,26.00
2023-02-26T19:13:06.309Z,26.00
2023-02-26T19:15:39.488Z,26.00
2023-02-26T19:18:12.711Z,26.00
2023-02-26T19:20:45.966Z,25.90
2023-02-26T19:23:19.626Z,25.90
2023-02-26T19:25:53.046Z,25.90
2023-02-26T19:28:27.556Z,25.90
2023-02-26T19:31:00.967Z,25.90
2023-02-26T19:33:34.233Z,25.90
2023-02-26T19:36:07.877Z,25.90
2023-02-26T19:38:41.134Z,25.90
2023-02-26T19:41:14.240Z,25.90
2023-02-26T19:43:48.775Z,25.90
2023-02-26T19:46:22.119Z,25.90
2023-02-26T19:48:55.211Z,25.90
2023-02-26T19:51:28.735Z,25.90
2023-02-26T19:54:02.229Z,25.90
2023-02-26T19:56:35.469Z,25.90
2023-02-26T19:59:10.349Z,25.90
2023-02-26T20:01:44.011Z,25.90
2023-02-26T20:04:17.260Z,25.90
2023-02-26T20:06:50.640Z,25.90
2023-02-26T20:09:24.230Z,25.90
2023-02-26T20:11:57.463Z,25.90
2023-02-26T20:14:31.936Z,26.00
2023-02-26T20:17:05.283Z,25.90
2023-02-26T20:19:38.580Z,25.90
2023-02-26T20:22:11.728Z,25.90
2023-02-26T20:24:44.805Z,25.90
2023-02-26T20:27:17.890Z,26.00
2023-02-26T20:29:52.393Z,25.90
2023-02-26T20:32:26.171Z,26.00
2023-02-26T20:34:59.336Z,25.90
2023-02-26T20:37:32.446Z,26.00
2023-02-26T20:40:06.240Z,26.00
2023-02-26T20:42:39.457Z,26.00
2023-02-26T20:45:14.364Z,26.00
2023-02-26T20:47:47.443Z,25.90
2023-02-26T20:50:20.609Z,26.00
2023-02-26T20:52:53.702Z,25.90
2023-02-26T20:55:26.785Z,26.00
2023-02-26T20:58:00.148Z,26.00
2023-02-26T21:00:34.703Z,26.00
2023-02-26T21:03:08.241Z,26.00
2023-02-26T21:05:41.802Z,26.00
2023-02-26T21:08:14.913Z,26.00
2023-02-26T21:10:50.152Z,26.00
2023-02-26T21:13:23.429Z,26.00
2023-02-26T21:15:58.146Z,26.00
2023-02-26T21:18:31.252Z,26.00
2023-02-26T21:21:04.910Z,26.00
2023-02-26T21:23:38.153Z,26.00
2023-02-26T21:26:11.383Z,26.00
2023-02-26T21:28:47.040Z,26.00
2023-02-26T21:31:24.860Z,26.00
2023-02-26T21:33:58.602Z,25.90
2023-02-26T21:36:32.750Z,26.00
2023-02-26T21:39:05.847Z,26.00
2023-02-26T21:41:38.949Z,26.00
2023-02-26T21:44:12.465Z,26.00
2023-02-26T21:46:46.948Z,25.90
2023-02-26T21:49:20.063Z,25.90
2023-02-26T21:51:53.571Z,25.90
2023-02-26T21:54:26.708Z,26.00
2023-02-26T21:57:00.225Z,25.90
2023-02-26T21:59:33.411Z,26.00
2023-02-26T22:02:08.044Z,26.00
2023-02-26T22:04:42.082Z,26.00
2023-02-26T22:07:15.354Z,26.00
2023-02-26T22:09:49.108Z,26.00
2023-02-26T22:12:22.301Z,26.00
2023-02-26T22:14:55.371Z,26.00
2023-02-26T22:17:31.168Z,26.00
2023-02-26T22:20:09.827Z,25.90
2023-02-26T22:22:43.135Z,25.90
2023-02-26T22:25:16.238Z,25.90
2023-02-26T22:27:49.358Z,25.90
2023-02-26T22:30:22.637Z,25.90
2023-02-26T22:32:57.153Z,25.90
2023-02-26T22:35:30.393Z,25.90
2023-02-26T22:38:03.446Z,25.90
2023-02-26T22:40:37.156Z,25.90
2023-02-26T22:43:10.316Z,25.90
2023-02-26T22:45:43.427Z,25.90
2023-02-26T22:48:18.519Z,25.90
2023-02-26T22:50:51.730Z,25.90
2023-02-26T22:53:24.801Z,25.90
2023-02-26T22:55:58.338Z,25.80
2023-02-26T22:58:31.413Z,25.90
2023-02-26T23:01:05.571Z,25.80
2023-02-26T23:03:40.080Z,25.80
2023-02-26T23:06:13.492Z,25.80
2023-02-26T23:08:46.594Z,25.80
2023-02-26T23:11:19.736Z,25.80
2023-02-26T23:13:52.823Z,25.80
2023-02-26T23:16:25.897Z,25.80
2023-02-26T23:19:00.376Z,25.80
2023-02-26T23:21:33.467Z,25.80
2023-02-26T23:24:06.651Z,25.80
2023-02-26T23:26:39.722Z,25.80
2023-02-26T23:29:12.769Z,25.80
2023-02-26T23:31:46.176Z,25.80
2023-02-26T23:34:21.089Z,25.80
2023-02-26T23:36:54.151Z,25.80
2023-02-26T23:39:28.508Z,25.80
2023-02-26T23:42:01.579Z,25.80
2023-02-26T23:44:34.654Z,25.80
2023-02-26T23:47:07.765Z,25.80
2023-02-26T23:49:42.177Z,25.80
2023-02-26T23:52:15.249Z,25.80
2023-02-26T23:54:48.319Z,25.80
2023-02-26T23:57:21.366Z,25.80
2023-02-26T23:59:54.475Z,25.80
